| time (UTC) | temp C | wind direction | speed KPH | gust KPH | rain 1hr cm | rain 24hr cm | rain mn cm | humidity % | barometer mb |
| 20260905223330 | 23 | 184 | 3.2 | 6.4 | 0.00 | 0.48 | 0.48 | 82 | 1010.0 |
| 20260905221830 | 23 | 235 | 1.6 | 3.2 | 0.00 | 0.48 | 0.48 | 82 | 1009.3 |
| 20260905220327 | 23 | 234 | 1.6 | 3.2 | 0.03 | 0.48 | 0.48 | 83 | 1008.7 |
| 20260905214826 | 23 | 234 | 1.6 | 3.2 | 0.20 | 0.48 | 0.48 | 80 | 1008.6 |
| 20260905213343 | 24 | 313 | 6.4 | 12.9 | 0.36 | 0.48 | 0.48 | 79 | 1009.2 |
| 20260905211822 | 23 | 318 | 12.9 | 29.0 | 0.38 | 0.48 | 0.48 | 81 | 1009.1 |
| 20260905210319 | 23 | 260 | 3.2 | 11.3 | 0.46 | 0.46 | 0.46 | 80 | 1009.0 |
| 20260905204815 | 26 | 280 | 3.2 | 16.1 | 0.28 | 0.28 | 0.28 | 69 | 1009.5 |
| 20260905203336 | 30 | 311 | 6.4 | 16.1 | 0.13 | 0.13 | 0.13 | 67 | 1009.2 |
| 20260905201814 | 32 | 314 | 4.8 | 20.9 | 0.10 | 0.10 | 0.10 | 59 | 1008.7 |
| 20260905200313 | 36 | 252 | 0.0 | 6.4 | 0.00 | 0.00 | 0.00 | 45 | 1008.5 |
| 20260905194830 | 36 | 336 | 0.0 | 6.4 | 0.00 | 0.00 | 0.00 | 45 | 1008.4 |
| 20260905193330 | 36 | 337 | 6.4 | 9.7 | 0.00 | 0.00 | 0.00 | 44 | 1008.6 |
| 20260905191827 | 36 | 276 | 0.0 | 4.8 | 0.00 | 0.00 | 0.00 | 48 | 1008.9 |
| 20260905190324 | 36 | 347 | 6.4 | 9.7 | 0.00 | 0.00 | 0.00 | 45 | 1009.0 |
| 20260905184845 | 36 | 320 | 0.0 | 8.0 | 0.00 | 0.00 | 0.00 | 47 | 1009.1 |
| 20260905183320 | 35 | 342 | 3.2 | 12.9 | 0.00 | 0.00 | 0.00 | 50 | 1009.6 |
| 20260905181841 | 35 | 315 | 1.6 | 6.4 | 0.00 | 0.00 | 0.00 | 48 | 1010.0 |
| 20260905180315 | 35 | 304 | 0.0 | 8.0 | 0.00 | 0.00 | 0.00 | 52 | 1010.3 |
| 20260905174815 | 35 | 355 | 3.2 | 8.0 | 0.00 | 0.00 | 0.00 | 51 | 1010.5 |
| 20260905173314 | 35 | 360 | 6.4 | 12.9 | 0.00 | 0.00 | 0.00 | 53 | 1010.7 |
| 20260905171815 | 34 | 341 | 1.6 | 9.7 | 0.00 | 0.00 | 0.00 | 55 | 1010.9 |
| 20260905170314 | 34 | 332 | 1.6 | 8.0 | 0.00 | 0.00 | 0.00 | 55 | 1011.2 |
| 20260905164812 | 34 | 294 | 1.6 | 4.8 | 0.00 | 0.00 | 0.00 | 55 | 1011.3 |
| 20260905163315 | 33 | 313 | 3.2 | 6.4 | 0.00 | 0.00 | 0.00 | 55 | 1011.8 |
| 20260905161831 | 33 | 238 | 1.6 | 6.4 | 0.00 | 0.00 | 0.00 | 57 | 1011.9 |
| 20260905160314 | 33 | 320 | 4.8 | 8.0 | 0.00 | 0.00 | 0.00 | 58 | 1012.0 |
| 20260905154831 | 32 | 237 | 1.6 | 11.3 | 0.00 | 0.00 | 0.00 | 59 | 1012.1 |
| 20260905153313 | 32 | 227 | 3.2 | 4.8 | 0.00 | 0.00 | 0.00 | 62 | 1012.3 |
| 20260905151832 | 31 | 205 | 1.6 | 8.0 | 0.00 | 0.00 | 0.00 | 65 | 1012.4 |
| 20260905150313 | 31 | 262 | 1.6 | 6.4 | 0.00 | 0.00 | 0.00 | 65 | 1012.5 |
| 20260905144829 | 31 | 267 | 0.0 | 4.8 | 0.00 | 0.00 | 0.00 | 68 | 1012.8 |
| 20260905143328 | 30 | 270 | 0.0 | 4.8 | 0.00 | 0.00 | 0.00 | 68 | 1012.8 |
| 20260905141822 | 30 | 286 | 3.2 | 4.8 | 0.00 | 0.00 | 0.00 | 69 | 1012.8 |
| 20260905140339 | 30 | 284 | 1.6 | 6.4 | 0.00 | 0.00 | 0.00 | 70 | 1012.8 |
| 20260905134818 | 29 | 246 | 0.0 | 3.2 | 0.00 | 0.00 | 0.00 | 73 | 1012.8 |
| 20260905133314 | 28 | 246 | 0.0 | 6.4 | 0.00 | 0.00 | 0.00 | 75 | 1012.9 |
| 20260905131814 | 27 | 254 | 0.0 | 1.6 | 0.00 | 0.00 | 0.00 | 77 | 1013.0 |
| 20260905130330 | 27 | 266 | 0.0 | 1.6 | 0.00 | 0.00 | 0.00 | 80 | 1013.1 |
| 20260905124826 | 26 | 110 | 0.0 | 0.0 | 0.00 | 0.00 | 0.00 | 83 | 1013.2 |
| 20260905123327 | 26 | 110 | 0.0 | 0.0 | 0.00 | 0.00 | 0.00 | 85 | 1013.1 |
| 20260905121824 | 25 | 110 | 0.0 | 0.0 | 0.00 | 0.00 | 0.00 | 87 | 1013.0 |
| 20260905120323 | 24 | 110 | 0.0 | 0.0 | 0.00 | 0.00 | 0.00 | 88 | 1012.8 |